Time;durP1;ratioP1;P1;durP2;ratioP2;P2;SDS_P1;SDS_P2;PMS_P1;PMS_P2;Temp;Humidity;BMP_temperature;BMP_pressure;BME280_temperature;BME280_humidity;BME280_pressure;Samples;Min_cycle;Max_cycle;Signal;HPM_P1;HPM_P2
2022/11/05 00:09:32;;;;;;;17.50;10.00;;;6.10;99.90;;;;;;7339517;32;20204;-61
2022/11/05 00:17:54;;;;;;;17.80;9.10;;;5.90;99.90;;;;;;7346612;32;20178;-59
2022/11/05 00:26:16;;;;;;;18.75;9.68;;;5.80;99.90;;;;;;7344259;32;20229;-58
2022/11/05 00:30:23;;;;;;;20.50;10.20;;;5.80;99.90;;;;;;7338475;32;20134;-58
2022/11/05 00:34:25;;;;;;;14.60;8.85;;;5.70;99.90;;;;;;7347574;32;20092;-58
2022/11/05 00:38:29;;;;;;;14.52;9.10;;;5.60;99.90;;;;;;7348926;32;20124;-59
2022/11/05 00:49:28;;;;;;;14.27;9.45;;;5.50;99.90;;;;;;7343123;32;20099;-58
2022/11/05 00:51:16;;;;;;;14.40;9.40;;;5.40;99.90;;;;;;7339286;32;20150;-58
2022/11/05 00:55:17;;;;;;;17.77;9.38;;;5.40;99.90;;;;;;7346214;32;20428;-58
2022/11/05 00:59:19;;;;;;;18.00;9.60;;;5.30;99.90;;;;;;7351198;32;20107;-58
2022/11/05 01:03:24;;;;;;;14.85;9.27;;;5.30;99.90;;;;;;7353601;32;20439;-59
2022/11/05 01:07:26;;;;;;;13.48;9.13;;;5.20;99.90;;;;;;7352777;32;20179;-59
2022/11/05 01:11:35;;;;;;;21.65;9.25;;;5.20;99.90;;;;;;7354269;32;20593;-58
2022/11/05 01:15:37;;;;;;;15.48;9.18;;;5.10;99.90;;;;;;7356726;32;20137;-60
2022/11/05 01:19:39;;;;;;;15.25;9.43;;;5.10;99.90;;;;;;7355839;32;20139;-58
2022/11/05 01:23:41;;;;;;;17.80;9.77;;;5.10;99.90;;;;;;7355092;32;20111;-58
2022/11/05 01:27:42;;;;;;;12.85;7.95;;;5.00;99.90;;;;;;7353928;32;20129;-60
2022/11/05 01:31:44;;;;;;;13.50;8.15;;;4.90;99.90;;;;;;7356737;32;20779;-60
2022/11/05 01:35:46;;;;;;;14.52;8.07;;;4.90;99.90;;;;;;7356301;32;20107;-60
2022/11/05 01:39:47;;;;;;;16.67;8.70;;;4.90;99.90;;;;;;7358944;32;20154;-59
2022/11/05 01:43:54;;;;;;;14.43;8.50;;;4.80;99.90;;;;;;7352876;32;20136;-60
2022/11/05 01:48:20;;;;;;;13.88;9.20;;;4.70;99.90;;;;;;7350901;32;20224;-59
2022/11/05 01:52:23;;;;;;;16.00;9.40;;;4.70;99.90;;;;;;7357255;32;20115;-60
2022/11/05 01:56:50;;;;;;;13.38;8.90;;;4.70;99.90;;;;;;7352175;32;20234;-59
2022/11/05 02:00:54;;;;;;;16.00;9.55;;;4.70;99.90;;;;;;7352420;32;20111;-60
2022/11/05 02:04:59;;;;;;;15.73;9.55;;;4.90;99.90;;;;;;7356402;32;20594;-59
2022/11/05 02:09:01;;;;;;;14.40;9.10;;;4.80;99.90;;;;;;7356370;32;20111;-60
2022/11/05 02:13:03;;;;;;;17.27;9.30;;;4.70;99.90;;;;;;7353991;32;20222;-59
2022/11/05 02:17:15;;;;;;;15.43;9.05;;;4.70;99.90;;;;;;7354585;32;20133;-59
2022/11/05 02:21:54;;;;;;;15.13;8.95;;;4.70;99.90;;;;;;7353820;32;20149;-60
2022/11/05 02:26:34;;;;;;;16.00;8.90;;;4.70;99.90;;;;;;7349979;32;20119;-60
2022/11/05 02:30:55;;;;;;;17.50;9.13;;;4.70;99.90;;;;;;7346111;32;20190;-59
2022/11/05 02:35:17;;;;;;;16.10;8.80;;;4.80;99.90;;;;;;7350773;32;20487;-60
2022/11/05 02:39:26;;;;;;;12.40;8.45;;;4.80;99.90;;;;;;7345233;32;20241;-60
2022/11/05 02:43:44;;;;;;;14.90;8.30;;;4.80;99.90;;;;;;7349550;32;20194;-59
2022/11/05 02:48:12;;;;;;;16.02;8.30;;;4.80;99.90;;;;;;7350501;32;20133;-59
2022/11/05 02:52:22;;;;;;;12.70;8.15;;;4.70;99.90;;;;;;7345417;32;20467;-60
2022/11/05 02:56:34;;;;;;;16.73;8.20;;;4.80;99.90;;;;;;7352061;32;20481;-59
2022/11/05 03:00:36;;;;;;;14.32;8.43;;;4.80;99.90;;;;;;7348130;32;20221;-59
2022/11/05 03:04:38;;;;;;;13.65;9.20;;;4.90;99.90;;;;;;7353445;32;20115;-59
2022/11/05 03:08:51;;;;;;;12.30;8.77;;;5.00;99.90;;;;;;7349151;32;20212;-59
2022/11/05 03:13:21;;;;;;;19.33;11.05;;;5.20;99.90;;;;;;7352825;32;20465;-60
2022/11/05 03:17:49;;;;;;;17.73;9.55;;;5.30;99.90;;;;;;7346574;32;20226;-60
2022/11/05 03:22:01;;;;;;;;;;;5.40;99.90;;;;;;7355427;32;20107;-60
2022/11/05 03:26:19;;;;;;;17.40;9.32;;;5.40;99.90;;;;;;7355762;32;20010;-60
2022/11/05 03:30:22;;;;;;;14.70;9.05;;;5.50;99.90;;;;;;7346954;32;20748;-60
2022/11/05 03:34:31;;;;;;;15.63;8.50;;;5.60;99.90;;;;;;7352426;32;20285;-59
2022/11/05 03:38:40;;;;;;;14.48;9.75;;;5.60;99.90;;;;;;7349232;32;20517;-60
2022/11/05 03:42:48;;;;;;;13.48;8.70;;;5.60;99.90;;;;;;7348718;32;20138;-60
2022/11/05 03:46:51;;;;;;;10.95;8.55;;;5.50;99.90;;;;;;7344852;32;20284;-58
2022/11/05 03:51:04;;;;;;;14.50;8.98;;;5.50;99.90;;;;;;7342737;32;20116;-58
2022/11/05 03:55:06;;;;;;;13.75;8.88;;;5.40;99.90;;;;;;7341741;32;20796;-59
2022/11/05 03:59:08;;;;;;;12.85;9.10;;;5.40;99.90;;;;;;7350943;32;20523;-59
2022/11/05 04:03:10;;;;;;;19.50;9.38;;;5.30;99.90;;;;;;7350511;32;20224;-59
2022/11/05 04:24:36;;;;;;;13.60;10.48;;;5.10;99.90;;;;;;7347872;32;20131;-58
2022/11/05 04:33:00;;;;;;;15.00;9.68;;;5.10;99.90;;;;;;7347879;32;20588;-59
2022/11/05 04:37:02;;;;;;;11.60;9.57;;;5.00;99.90;;;;;;7349200;32;20137;-58
2022/11/05 04:41:14;;;;;;;12.73;8.52;;;4.90;99.90;;;;;;7352475;32;20116;-58
2022/11/05 04:45:16;;;;;;;12.50;9.13;;;4.80;99.90;;;;;;7348423;32;20460;-59
2022/11/05 04:49:17;;;;;;;14.07;9.40;;;4.70;99.90;;;;;;7337503;32;20111;-58
2022/11/05 04:53:19;;;;;;;14.55;10.07;;;4.70;99.90;;;;;;7342399;32;20174;-59
2022/11/05 04:57:21;;;;;;;12.57;9.38;;;4.60;99.90;;;;;;7348213;32;20138;-59
2022/11/05 05:01:24;;;;;;;14.07;10.52;;;4.60;99.90;;;;;;7346929;32;20245;-58
2022/11/05 05:05:26;;;;;;;18.10;11.02;;;4.60;99.90;;;;;;7343172;32;20243;-59
2022/11/05 05:09:27;;;;;;;15.20;10.32;;;4.50;99.90;;;;;;7354428;32;20558;-59
2022/11/05 05:13:29;;;;;;;17.00;11.43;;;4.40;99.90;;;;;;7350744;32;20130;-58
2022/11/05 05:17:31;;;;;;;19.00;11.85;;;4.30;99.90;;;;;;7348009;32;20666;-58
2022/11/05 05:21:39;;;;;;;15.88;10.57;;;4.30;99.90;;;;;;7351959;32;20107;-58
2022/11/05 05:25:40;;;;;;;15.70;9.68;;;4.20;99.90;;;;;;7338815;32;20194;-59
2022/11/05 05:29:42;;;;;;;15.50;10.13;;;4.20;99.90;;;;;;7346834;32;20449;-58
2022/11/05 05:33:44;;;;;;;11.45;8.90;;;4.10;99.90;;;;;;7342330;32;20740;-58
2022/11/05 05:37:45;;;;;;;11.95;8.18;;;4.10;99.90;;;;;;7350250;32;20128;-59
2022/11/05 05:41:47;;;;;;;15.70;8.73;;;4.10;99.90;;;;;;7351706;32;20903;-59
2022/11/05 05:45:49;;;;;;;11.88;9.02;;;4.00;99.90;;;;;;7350063;32;20107;-59
2022/11/05 05:49:51;;;;;;;16.30;9.27;;;4.00;99.90;;;;;;7346066;32;20194;-58
2022/11/05 05:53:53;;;;;;;15.02;9.48;;;3.90;99.90;;;;;;7343905;32;20130;-58
2022/11/05 05:57:55;;;;;;;13.40;9.48;;;3.90;99.90;;;;;;7343088;32;20225;-59
2022/11/05 06:01:57;;;;;;;11.38;8.77;;;3.90;99.90;;;;;;7344229;32;20500;-58
2022/11/05 06:06:11;;;;;;;12.23;9.30;;;3.90;99.90;;;;;;7345939;32;20266;-59
2022/11/05 06:10:13;;;;;;;12.10;8.30;;;3.80;99.90;;;;;;7352844;32;20153;-59
2022/11/05 06:14:15;;;;;;;16.42;9.13;;;3.80;99.90;;;;;;7351160;32;20537;-58
2022/11/05 06:18:17;;;;;;;12.25;8.23;;;3.70;99.90;;;;;;7347647;32;20111;-58
2022/11/05 06:22:18;;;;;;;17.27;9.02;;;3.70;99.90;;;;;;7350421;32;20831;-58
2022/11/05 06:26:20;;;;;;;11.70;8.45;;;3.70;99.90;;;;;;7349027;32;20111;-58
2022/11/05 06:30:22;;;;;;;12.60;7.85;;;3.60;99.90;;;;;;7338735;32;20225;-59
2022/11/05 06:34:24;;;;;;;13.93;8.60;;;3.60;99.90;;;;;;7348893;32;20233;-58
2022/11/05 06:38:28;;;;;;;13.55;8.90;;;3.60;99.90;;;;;;7353374;32;20198;-59
2022/11/05 06:42:29;;;;;;;13.82;9.45;;;3.60;99.90;;;;;;7345608;32;20264;-57
2022/11/05 06:46:31;;;;;;;11.73;8.82;;;3.50;99.90;;;;;;7347780;32;20197;-58
2022/11/05 06:50:33;;;;;;;13.50;9.15;;;3.60;99.90;;;;;;7349068;32;20127;-58
2022/11/05 06:54:34;;;;;;;14.93;9.52;;;3.50;99.90;;;;;;7349513;32;20107;-57
2022/11/05 06:58:36;;;;;;;16.08;9.00;;;3.60;99.90;;;;;;7346325;32;20230;-58
2022/11/05 07:02:38;;;;;;;14.25;9.30;;;3.50;99.90;;;;;;7350354;32;20110;-59
2022/11/05 07:06:39;;;;;;;16.52;9.80;;;3.60;99.90;;;;;;7346550;32;20598;-58
2022/11/05 07:10:41;;;;;;;14.23;9.80;;;3.60;99.90;;;;;;7347655;32;20194;-58
2022/11/05 07:14:43;;;;;;;12.13;8.82;;;3.60;99.90;;;;;;7344590;32;20111;-59
2022/11/05 07:18:44;;;;;;;18.83;10.00;;;3.60;99.90;;;;;;7353636;32;20225;-57
2022/11/05 07:22:46;;;;;;;13.65;10.00;;;3.60;99.90;;;;;;7348924;32;20550;-58
2022/11/05 07:26:48;;;;;;;13.52;9.93;;;3.70;99.90;;;;;;7352202;32;20115;-57
2022/11/05 07:30:50;;;;;;;18.80;10.50;;;3.80;99.90;;;;;;7353315;32;20107;-59
2022/11/05 07:34:51;;;;;;;15.80;10.35;;;3.80;99.90;;;;;;7344212;32;20194;-60
2022/11/05 07:38:53;;;;;;;15.82;10.57;;;3.80;99.90;;;;;;7340574;32;20134;-59
2022/11/05 07:43:01;;;;;;;13.60;9.90;;;3.90;99.90;;;;;;7350340;32;20222;-61
2022/11/05 07:47:03;;;;;;;17.60;11.15;;;3.90;99.90;;;;;;7344999;32;20138;-59
2022/11/05 07:51:04;;;;;;;17.30;10.98;;;4.00;99.90;;;;;;7337088;32;20202;-60
2022/11/05 07:55:06;;;;;;;18.60;11.30;;;4.00;99.90;;;;;;7344289;32;20216;-60
2022/11/05 07:59:08;;;;;;;15.60;10.98;;;4.10;99.90;;;;;;7341596;32;20104;-61
2022/11/05 08:03:15;;;;;;;24.70;17.25;;;4.20;99.90;;;;;;7344263;32;20600;-60
2022/11/05 08:07:18;;;;;;;26.25;15.93;;;4.40;99.90;;;;;;7347949;32;20187;-60
2022/11/05 08:11:19;;;;;;;28.33;17.37;;;4.80;99.90;;;;;;7347777;32;20111;-61
2022/11/05 08:15:22;;;;;;;26.30;17.48;;;5.00;99.90;;;;;;7347676;32;20220;-60
2022/11/05 08:19:24;;;;;;;29.02;18.08;;;5.20;99.90;;;;;;7346128;32;20440;-60
2022/11/05 08:23:26;;;;;;;37.08;20.62;;;5.50;99.90;;;;;;7353480;32;20502;-60
2022/11/05 08:27:28;;;;;;;29.48;18.95;;;5.70;99.90;;;;;;7353855;32;20186;-60
2022/11/05 08:31:30;;;;;;;34.28;18.73;;;5.90;99.90;;;;;;7348773;32;20130;-60
2022/11/05 08:35:33;;;;;;;35.13;18.48;;;6.10;99.90;;;;;;7343610;32;20286;-60
2022/11/05 08:39:35;;;;;;;27.87;18.00;;;6.30;99.90;;;;;;7341285;32;20238;-60
2022/11/05 08:43:37;;;;;;;25.25;16.67;;;6.50;99.90;;;;;;7342465;32;20129;-60
2022/11/05 08:47:38;;;;;;;24.25;15.38;;;6.60;99.90;;;;;;7350563;32;20566;-61
2022/11/05 08:51:42;;;;;;;27.25;15.82;;;6.80;99.90;;;;;;7347748;32;20509;-61
2022/11/05 08:55:46;;;;;;;26.20;14.77;;;6.90;99.90;;;;;;7345874;32;20111;-61
2022/11/05 08:59:48;;;;;;;21.83;13.60;;;7.10;99.90;;;;;;7350670;32;20100;-61
2022/11/05 09:03:50;;;;;;;20.92;13.55;;;7.20;99.90;;;;;;7344298;32;20762;-60
2022/11/05 09:07:52;;;;;;;21.42;13.80;;;7.40;99.90;;;;;;7348522;32;20245;-60
2022/11/05 09:12:01;;;;;;;24.77;14.20;;;7.30;99.90;;;;;;7339734;32;20111;-61
2022/11/05 09:16:19;;;;;;;25.15;14.23;;;7.50;99.90;;;;;;7350634;32;20115;-60
2022/11/05 09:20:21;;;;;;;22.35;14.60;;;7.60;99.90;;;;;;7351395;32;20447;-61
2022/11/05 09:24:23;;;;;;;20.92;13.95;;;7.70;99.90;;;;;;7354023;32;20115;-60
2022/11/05 09:28:25;;;;;;;20.77;14.32;;;7.80;99.90;;;;;;7354603;32;20225;-61
2022/11/05 09:32:26;;;;;;;23.20;12.77;;;7.80;99.90;;;;;;7343654;32;20195;-61
2022/11/05 09:36:28;;;;;;;17.00;11.45;;;8.60;99.90;;;;;;7352875;32;20780;-60
2022/11/05 09:40:34;;;;;;;17.17;11.10;;;9.40;99.90;;;;;;7343696;32;20213;-61
2022/11/05 09:44:40;;;;;;;17.05;10.85;;;10.10;99.90;;;;;;7341905;32;20220;-59
2022/11/05 09:48:46;;;;;;;22.67;11.32;;;10.00;99.90;;;;;;7341867;32;20209;-60
2022/11/05 09:52:48;;;;;;;17.10;11.47;;;9.90;99.90;;;;;;7352603;32;20099;-60
2022/11/05 09:56:52;;;;;;;17.37;11.27;;;9.80;99.90;;;;;;7344299;32;20229;-60
2022/11/05 10:00:55;;;;;;;15.18;10.10;;;9.80;99.90;;;;;;7339111;32;20209;-60
2022/11/05 10:05:02;;;;;;;16.73;10.80;;;9.80;99.90;;;;;;7341522;32;20142;-60
2022/11/05 10:09:25;;;;;;;18.25;11.15;;;9.60;99.90;;;;;;7343359;32;20141;-61
2022/11/05 10:13:41;;;;;;;17.02;10.93;;;9.50;99.90;;;;;;7349022;32;20609;-61
2022/11/05 10:17:52;;;;;;;17.98;11.12;;;9.70;99.90;;;;;;7349060;32;20198;-61
2022/11/05 10:22:15;;;;;;;17.37;10.10;;;9.60;99.90;;;;;;7346973;32;20130;-62
2022/11/05 10:26:22;;;;;;;18.23;9.90;;;9.70;99.90;;;;;;7348924;32;20214;-61
2022/11/05 10:30:24;;;;;;;13.60;9.13;;;9.60;99.90;;;;;;7347246;32;20230;-61
2022/11/05 10:34:32;;;;;;;16.50;7.95;;;9.80;99.90;;;;;;7341343;32;20218;-61
2022/11/05 10:38:34;;;;;;;13.30;7.55;;;9.80;99.90;;;;;;7344649;32;20225;-61
2022/11/05 10:43:07;;;;;;;16.75;8.52;;;10.00;99.90;;;;;;7351159;32;20133;-61
2022/11/05 10:47:30;;;;;;;12.93;7.53;;;10.10;99.90;;;;;;7355434;32;20563;-62
2022/11/05 10:51:32;;;;;;;11.50;6.78;;;10.20;99.90;;;;;;7344963;32;20373;-61
2022/11/05 10:55:40;;;;;;;14.82;6.90;;;10.40;99.90;;;;;;7351738;32;20241;-61
2022/11/05 10:59:41;;;;;;;11.80;6.87;;;10.40;99.90;;;;;;7345246;32;20163;-61
2022/11/05 11:03:49;;;;;;;11.98;5.80;;;10.70;99.90;;;;;;7337904;32;20269;-61
2022/11/05 11:07:56;;;;;;;13.13;5.97;;;10.90;99.90;;;;;;7343474;32;20106;-61
2022/11/05 11:12:02;;;;;;;13.07;6.07;;;11.00;99.90;;;;;;7352433;32;20137;-61
2022/11/05 11:16:22;;;;;;;10.43;6.60;;;11.10;99.90;;;;;;7351338;32;20234;-61
2022/11/05 11:20:31;;;;;;;11.30;5.90;;;11.10;99.90;;;;;;7343745;32;20280;-61
2022/11/05 11:24:44;;;;;;;11.43;6.07;;;11.20;99.90;;;;;;7344909;32;20935;-60
2022/11/05 11:29:13;;;;;;;10.77;5.22;;;11.30;99.90;;;;;;7334996;32;20201;-60
2022/11/05 11:33:20;;;;;;;13.10;5.75;;;11.40;99.90;;;;;;7332669;32;20142;-61
2022/11/05 11:37:29;;;;;;;10.35;4.82;;;11.40;99.90;;;;;;7348874;32;20248;-61
2022/11/05 11:41:35;;;;;;;11.00;4.12;;;11.50;99.90;;;;;;7350269;32;20100;-60
2022/11/05 11:45:45;;;;;;;8.45;3.95;;;11.60;99.90;;;;;;7353066;32;20808;-61
2022/11/05 11:49:55;;;;;;;8.68;3.83;;;11.60;99.90;;;;;;7351832;32;20555;-63
2022/11/05 11:53:59;;;;;;;7.85;3.65;;;11.50;99.90;;;;;;7346384;32;20112;-61
2022/11/05 11:58:06;;;;;;;9.43;3.60;;;11.50;99.90;;;;;;7348217;32;20119;-62
2022/11/05 12:02:22;;;;;;;8.20;4.30;;;11.60;99.90;;;;;;7343130;32;20531;-60
2022/11/05 12:07:02;;;;;;;9.93;4.12;;;11.60;99.90;;;;;;7340828;32;20110;-60
2022/11/05 12:11:26;;;;;;;10.70;3.40;;;11.60;99.90;;;;;;7341749;32;20467;-60
2022/11/05 12:15:40;;;;;;;8.50;3.87;;;11.60;99.90;;;;;;7343261;32;20104;-63
2022/11/05 12:20:08;;;;;;;6.72;2.97;;;11.70;99.90;;;;;;7331899;32;20213;-63
2022/11/05 12:24:43;;;;;;;6.37;2.90;;;11.70;99.90;;;;;;7315249;32;20664;-63
2022/11/05 12:29:10;;;;;;;8.32;3.15;;;11.80;99.90;;;;;;7338137;32;20221;-63
2022/11/05 12:33:30;;;;;;;9.50;3.47;;;11.80;99.90;;;;;;7345906;32;20547;-62
2022/11/05 12:37:54;;;;;;;6.40;2.67;;;11.90;99.90;;;;;;7341796;32;20202;-61
2022/11/05 12:42:21;;;;;;;7.87;3.17;;;11.90;99.90;;;;;;7352046;32;20523;-61
2022/11/05 12:46:44;;;;;;;10.95;3.20;;;11.90;99.90;;;;;;7349082;32;20202;-60
2022/11/05 12:51:01;;;;;;;6.30;3.15;;;12.00;99.90;;;;;;7347140;32;20115;-60
2022/11/05 12:55:15;;;;;;;8.10;3.65;;;12.10;99.90;;;;;;7348243;32;20225;-60
2022/11/05 12:59:32;;;;;;;7.00;3.30;;;12.10;99.90;;;;;;7349303;32;20133;-62
2022/11/05 13:03:51;;;;;;;8.27;3.22;;;12.00;99.90;;;;;;7354380;32;20236;-61
2022/11/05 13:08:06;;;;;;;8.98;4.03;;;11.90;99.90;;;;;;7354829;32;20197;-61
2022/11/05 13:12:13;;;;;;;7.47;3.40;;;11.80;99.90;;;;;;7348414;32;20721;-61
2022/11/05 13:16:33;;;;;;;;;;;11.70;99.90;;;;;;7355547;32;20590;-61
2022/11/05 13:20:39;;;;;;;8.07;3.05;;;11.70;99.90;;;;;;7345971;32;20006;-60
2022/11/05 13:24:54;;;;;;;9.63;3.00;;;11.70;99.90;;;;;;7351479;32;20111;-61
2022/11/05 13:29:14;;;;;;;5.40;2.87;;;11.60;99.90;;;;;;7355983;32;20108;-62
2022/11/05 13:33:16;;;;;;;5.05;2.75;;;11.70;99.90;;;;;;7354049;32;20115;-59
2022/11/05 13:42:12;;;;;;;12.20;3.23;;;11.70;99.90;;;;;;7346444;32;20210;-60
2022/11/05 13:46:48;;;;;;;6.45;2.90;;;11.70;99.90;;;;;;7346857;32;20111;-60
2022/11/05 13:51:06;;;;;;;5.78;2.53;;;11.70;99.90;;;;;;7341894;32;20116;-61
2022/11/05 13:55:25;;;;;;;9.77;2.58;;;11.60;99.90;;;;;;7340627;32;20183;-62
2022/11/05 13:59:56;;;;;;;7.22;3.15;;;11.50;99.90;;;;;;7345298;32;20792;-60
2022/11/05 14:03:57;;;;;;;7.45;2.78;;;11.40;99.90;;;;;;7343730;32;20467;-60
2022/11/05 14:08:14;;;;;;;6.07;2.53;;;11.50;99.90;;;;;;7353774;32;20127;-60
2022/11/05 14:12:27;;;;;;;5.65;2.37;;;11.40;99.90;;;;;;7351539;32;20464;-60
2022/11/05 14:16:48;;;;;;;4.55;2.50;;;11.50;99.90;;;;;;7345310;32;20550;-60
2022/11/05 14:20:58;;;;;;;4.95;2.42;;;11.40;99.90;;;;;;7340381;32;20112;-62
2022/11/05 14:25:21;;;;;;;6.60;2.50;;;11.40;99.90;;;;;;7356124;32;20520;-60
2022/11/05 14:29:23;;;;;;;6.80;2.78;;;11.30;99.90;;;;;;7342401;32;20202;-60
2022/11/05 14:33:25;;;;;;;8.55;3.15;;;11.20;99.90;;;;;;7346537;32;20205;-60
2022/11/05 14:37:31;;;;;;;9.85;2.92;;;11.10;99.90;;;;;;7358312;32;20134;-63
2022/11/05 14:42:01;;;;;;;7.62;2.95;;;11.10;99.90;;;;;;7345339;32;20474;-61
2022/11/05 14:46:07;;;;;;;5.65;2.50;;;11.10;99.90;;;;;;7348962;32;20287;-61
2022/11/05 14:50:18;;;;;;;6.27;2.53;;;11.10;99.90;;;;;;7352619;32;20137;-63
2022/11/05 14:54:38;;;;;;;6.45;2.03;;;11.10;99.90;;;;;;7345900;32;20252;-63
2022/11/05 14:58:42;;;;;;;4.50;1.98;;;11.00;99.90;;;;;;7343776;32;20212;-61
2022/11/05 15:02:56;;;;;;;5.85;1.77;;;11.00;99.90;;;;;;7346731;32;20222;-62
2022/11/05 15:07:00;;;;;;;6.10;1.75;;;11.00;99.90;;;;;;7345049;32;20246;-62
2022/11/05 15:11:14;;;;;;;7.90;1.92;;;10.90;99.90;;;;;;7347064;32;20249;-61
2022/11/05 15:15:26;;;;;;;5.60;1.90;;;10.80;99.90;;;;;;7341772;32;20126;-61
2022/11/05 15:19:29;;;;;;;5.28;1.80;;;10.80;99.90;;;;;;7349290;32;20107;-64
2022/11/05 15:23:39;;;;;;;6.18;2.00;;;10.70;99.90;;;;;;7345472;32;20637;-61
2022/11/05 15:28:00;;;;;;;6.00;1.52;;;10.70;99.90;;;;;;7345832;32;20658;-64
2022/11/05 15:32:02;;;;;;;4.62;1.60;;;10.70;99.90;;;;;;7339724;32;20115;-63
2022/11/05 15:36:28;;;;;;;5.15;1.30;;;10.60;99.90;;;;;;7340894;32;20103;-62
2022/11/05 15:40:31;;;;;;;4.62;1.42;;;10.60;99.90;;;;;;7339409;32;20483;-64
2022/11/05 15:44:39;;;;;;;3.45;1.33;;;10.50;99.90;;;;;;7348574;32;20253;-64
2022/11/05 15:48:49;;;;;;;3.87;1.10;;;10.40;99.90;;;;;;7347304;32;20871;-63
2022/11/05 15:52:53;;;;;;;5.45;1.87;;;10.40;99.90;;;;;;7350096;32;20119;-64
2022/11/05 15:56:57;;;;;;;2.83;1.10;;;10.30;99.90;;;;;;7351416;32;20232;-62
2022/11/05 16:00:58;;;;;;;4.95;1.50;;;10.30;99.90;;;;;;7335554;32;20134;-61
2022/11/05 16:05:08;;;;;;;7.12;1.65;;;10.20;99.90;;;;;;7345006;32;21005;-62
2022/11/05 16:09:30;;;;;;;3.65;1.55;;;10.20;99.90;;;;;;7344964;32;20978;-61
2022/11/05 16:13:38;;;;;;;6.30;2.00;;;10.30;99.90;;;;;;7339473;32;20114;-59
2022/11/05 16:17:48;;;;;;;;;;;10.30;99.90;;;;;;7344724;32;20135;-59
2022/11/05 16:21:53;;;;;;;10.32;4.93;;;10.20;99.90;;;;;;7352094;32;20066;-59
2022/11/05 16:25:55;;;;;;;6.60;2.10;;;10.40;99.90;;;;;;7348903;32;20185;-58
2022/11/05 16:29:57;;;;;;;5.40;1.77;;;10.20;99.90;;;;;;7343067;32;20116;-60
2022/11/05 16:33:59;;;;;;;6.07;2.25;;;10.30;99.90;;;;;;7347885;32;20106;-58
2022/11/05 16:38:01;;;;;;;4.70;2.00;;;10.20;99.90;;;;;;7344922;32;20111;-58
2022/11/05 16:42:21;;;;;;;5.85;2.30;;;10.30;99.90;;;;;;7346519;32;20698;-58
2022/11/05 16:46:25;;;;;;;4.55;1.67;;;10.20;99.90;;;;;;7338876;32;20315;-59
2022/11/05 16:50:31;;;;;;;8.00;1.90;;;10.20;99.90;;;;;;7349438;32;20537;-59
2022/11/05 16:54:32;;;;;;;4.57;2.00;;;10.30;99.90;;;;;;7340929;32;20122;-58
2022/11/05 16:58:34;;;;;;;5.57;1.77;;;10.10;99.90;;;;;;7347164;32;20978;-60
2022/11/05 17:02:36;;;;;;;5.37;1.48;;;10.10;99.90;;;;;;7344140;32;20217;-60
2022/11/05 17:06:38;;;;;;;3.80;1.50;;;10.10;99.90;;;;;;7348578;32;20192;-60
2022/11/05 17:10:39;;;;;;;3.55;1.60;;;10.20;99.90;;;;;;7349096;32;20111;-61
2022/11/05 17:14:41;;;;;;;5.15;1.60;;;10.10;99.90;;;;;;7346888;32;20111;-60
2022/11/05 17:18:43;;;;;;;6.32;1.80;;;10.20;99.90;;;;;;7348982;32;20130;-61
2022/11/05 17:22:45;;;;;;;7.78;2.12;;;10.20;99.90;;;;;;7350410;32;20115;-59
2022/11/05 17:26:46;;;;;;;5.10;2.28;;;10.10;99.90;;;;;;7352703;32;20137;-60
2022/11/05 17:30:50;;;;;;;4.65;1.70;;;10.10;99.90;;;;;;7349608;32;20862;-62
2022/11/05 17:34:53;;;;;;;5.22;2.00;;;10.00;99.90;;;;;;7349878;32;20202;-61
2022/11/05 17:38:55;;;;;;;3.55;1.60;;;10.10;99.90;;;;;;7348769;32;20107;-60
2022/11/05 17:42:57;;;;;;;5.55;1.70;;;10.20;99.90;;;;;;7345282;32;20133;-61
2022/11/05 17:46:59;;;;;;;4.57;1.48;;;10.10;99.90;;;;;;7354662;32;20487;-59
2022/11/05 17:51:01;;;;;;;4.28;1.50;;;10.10;99.90;;;;;;7351694;32;20108;-58
2022/11/05 17:55:05;;;;;;;6.45;2.20;;;10.00;99.90;;;;;;7351089;32;20110;-59
2022/11/05 17:59:06;;;;;;;5.15;1.92;;;10.10;99.90;;;;;;7339942;32;20233;-59
2022/11/05 18:03:09;;;;;;;4.25;1.70;;;10.20;99.90;;;;;;7348843;32;20833;-59
2022/11/05 18:07:13;;;;;;;6.57;1.90;;;10.10;99.90;;;;;;7351912;32;20226;-59
2022/11/05 18:11:15;;;;;;;4.95;1.58;;;10.10;99.90;;;;;;7347053;32;20114;-58
2022/11/05 18:15:17;;;;;;;3.60;1.80;;;10.00;99.90;;;;;;7348900;32;20198;-60
2022/11/05 18:19:18;;;;;;;5.97;1.70;;;10.00;99.90;;;;;;7355164;32;20111;-59
2022/11/05 18:23:20;;;;;;;4.75;2.17;;;10.00;99.90;;;;;;7349950;32;20111;-59
2022/11/05 18:27:26;;;;;;;4.97;1.90;;;10.00;99.90;;;;;;7347069;32;20210;-59
2022/11/05 18:31:28;;;;;;;4.87;2.15;;;10.00;99.90;;;;;;7351353;32;20134;-59
2022/11/05 18:35:29;;;;;;;6.80;2.08;;;10.00;99.90;;;;;;7352916;32;20107;-58
2022/11/05 18:39:31;;;;;;;6.65;2.03;;;10.10;99.90;;;;;;7351952;32;20133;-59
2022/11/05 18:43:33;;;;;;;4.32;1.90;;;10.10;99.90;;;;;;7348602;32;20500;-58
2022/11/05 18:47:34;;;;;;;6.18;2.67;;;10.00;99.90;;;;;;7343204;32;20123;-59
2022/11/05 18:51:36;;;;;;;6.15;2.42;;;10.00;99.90;;;;;;7345462;32;20134;-58
2022/11/05 18:55:39;;;;;;;5.05;2.30;;;9.90;99.90;;;;;;7344434;32;20111;-58
2022/11/05 18:59:45;;;;;;;6.12;2.22;;;9.90;99.90;;;;;;7347318;32;20187;-58
2022/11/05 19:03:50;;;;;;;8.02;2.55;;;9.90;99.90;;;;;;7345251;32;20111;-63
2022/11/05 19:07:51;;;;;;;5.72;2.17;;;9.90;99.90;;;;;;7345980;32;20248;-63
2022/11/05 19:11:55;;;;;;;5.45;2.97;;;10.00;99.90;;;;;;7342531;32;20215;-59
2022/11/05 19:15:57;;;;;;;8.65;2.70;;;10.00;99.90;;;;;;7342883;32;20149;-60
2022/11/05 19:19:59;;;;;;;7.40;2.97;;;10.10;99.90;;;;;;7345233;32;20107;-62
2022/11/05 19:24:02;;;;;;;7.37;3.10;;;9.90;99.90;;;;;;7350312;32;20837;-60
2022/11/05 19:28:04;;;;;;;9.57;3.53;;;9.80;99.90;;;;;;7348591;32;20202;-60
2022/11/05 19:32:05;;;;;;;6.90;3.50;;;9.80;99.90;;;;;;7352372;32;20221;-62
2022/11/05 19:36:08;;;;;;;7.28;3.20;;;9.80;99.90;;;;;;7348284;32;20115;-61
2022/11/05 19:40:10;;;;;;;9.43;3.50;;;9.80;99.90;;;;;;7344872;32;20522;-59
2022/11/05 19:44:12;;;;;;;6.75;3.12;;;9.70;99.90;;;;;;7348960;32;20107;-59
2022/11/05 19:48:14;;;;;;;7.97;3.72;;;9.70;99.90;;;;;;7347941;32;20536;-61
2022/11/05 19:52:20;;;;;;;9.35;3.55;;;9.60;99.90;;;;;;7348798;32;20126;-61
2022/11/05 19:56:25;;;;;;;13.05;4.05;;;9.60;99.90;;;;;;7351751;32;20110;-62
2022/11/05 20:00:26;;;;;;;6.78;3.62;;;9.60;99.90;;;;;;7347201;32;20122;-60
2022/11/05 20:04:28;;;;;;;13.38;3.72;;;9.60;99.90;;;;;;7346766;32;20648;-59
2022/11/05 20:08:30;;;;;;;6.00;3.85;;;9.40;99.90;;;;;;7344641;32;20114;-58
2022/11/05 20:12:32;;;;;;;9.10;3.47;;;9.30;99.90;;;;;;7350757;32;20111;-61
2022/11/05 20:16:39;;;;;;;8.45;3.50;;;9.30;99.90;;;;;;7342180;32;20277;-61
2022/11/05 20:20:44;;;;;;;7.68;3.60;;;9.20;99.90;;;;;;7341845;32;20760;-61
2022/11/05 20:24:45;;;;;;;6.25;3.30;;;9.20;99.90;;;;;;7346577;32;20145;-60
2022/11/05 20:28:47;;;;;;;7.53;4.05;;;9.30;99.90;;;;;;7342340;32;20111;-59
2022/11/05 20:32:56;;;;;;;6.78;3.85;;;9.30;99.90;;;;;;7348159;32;20216;-60
2022/11/05 20:36:58;;;;;;;12.55;4.28;;;9.40;99.90;;;;;;7350432;32;20111;-61
2022/11/05 20:41:08;;;;;;;6.82;3.58;;;9.40;99.90;;;;;;7347403;32;20214;-60
2022/11/05 20:45:10;;;;;;;10.38;4.65;;;9.30;99.90;;;;;;7343083;32;20142;-59
2022/11/05 20:49:12;;;;;;;9.30;4.05;;;9.40;99.90;;;;;;7345750;32;20909;-58
2022/11/05 20:53:14;;;;;;;6.90;3.70;;;9.30;99.90;;;;;;7352597;32;20202;-59
2022/11/05 20:57:15;;;;;;;6.70;3.37;;;9.30;99.90;;;;;;7342761;32;20452;-59
2022/11/05 21:01:17;;;;;;;8.43;4.47;;;9.30;99.90;;;;;;7347579;32;20114;-60
2022/11/05 21:05:19;;;;;;;6.25;3.50;;;9.30;99.90;;;;;;7348563;32;20247;-60
2022/11/05 21:09:21;;;;;;;7.05;3.85;;;9.40;99.90;;;;;;7342642;32;20248;-60
2022/11/05 21:13:23;;;;;;;8.05;4.25;;;9.20;99.90;;;;;;7353489;32;20119;-58
2022/11/05 21:17:25;;;;;;;10.57;4.97;;;9.30;99.90;;;;;;7349661;32;20604;-58
2022/11/05 21:21:27;;;;;;;9.60;4.15;;;9.20;99.90;;;;;;7347058;32;20133;-61
2022/11/05 21:25:28;;;;;;;7.53;4.12;;;9.30;99.90;;;;;;7354111;32;20234;-60
2022/11/05 21:29:30;;;;;;;7.87;4.60;;;9.20;99.90;;;;;;7353697;32;20130;-60
2022/11/05 21:33:32;;;;;;;9.02;4.40;;;9.20;99.90;;;;;;7349079;32;20134;-59
2022/11/05 21:37:34;;;;;;;12.02;5.03;;;9.10;99.90;;;;;;7348070;32;20289;-59
2022/11/05 21:41:35;;;;;;;12.88;4.95;;;8.90;99.90;;;;;;7355660;32;20251;-60
2022/11/05 21:45:39;;;;;;;13.57;5.25;;;8.90;99.90;;;;;;7345734;32;20103;-62
2022/11/05 21:49:40;;;;;;;8.90;4.93;;;8.90;99.90;;;;;;7351404;32;20581;-61
2022/11/05 22:02:34;;;;;;;10.82;4.97;;;8.90;99.90;;;;;;7349667;32;20262;-59
2022/11/05 22:06:36;;;;;;;9.90;4.85;;;9.00;99.90;;;;;;7347755;32;20221;-59
2022/11/05 22:10:38;;;;;;;12.73;5.30;;;9.10;99.90;;;;;;7347015;32;20110;-59
2022/11/05 22:14:40;;;;;;;11.35;5.10;;;9.00;99.90;;;;;;7350526;32;20115;-60
2022/11/05 22:18:42;;;;;;;10.07;4.60;;;8.90;99.90;;;;;;7348160;32;20182;-59